sensor_id;sensor_type;location;lat;lon;timestamp;P1;durP1;ratioP1;P2;durP2;ratioP2
69126;SDS011;56688;50.234;19.292;2022-10-16T00:01:15;23.40;;;13.40;;
69126;SDS011;56688;50.234;19.292;2022-10-16T00:03:44;20.80;;;12.80;;
69126;SDS011;56688;50.234;19.292;2022-10-16T00:06:11;27.20;;;13.90;;
69126;SDS011;56688;50.234;19.292;2022-10-16T00:08:40;24.20;;;15.00;;
69126;SDS011;56688;50.234;19.292;2022-10-16T00:11:08;32.90;;;16.90;;
69126;SDS011;56688;50.234;19.292;2022-10-16T00:13:38;27.20;;;14.10;;
69126;SDS011;56688;50.234;19.292;2022-10-16T00:16:07;24.60;;;13.80;;
69126;SDS011;56688;50.234;19.292;2022-10-16T00:18:35;26.10;;;12.80;;
69126;SDS011;56688;50.234;19.292;2022-10-16T00:21:03;21.80;;;13.30;;
69126;SDS011;56688;50.234;19.292;2022-10-16T00:23:33;22.20;;;13.60;;
69126;SDS011;56688;50.234;19.292;2022-10-16T00:26:02;21.40;;;12.70;;
69126;SDS011;56688;50.234;19.292;2022-10-16T00:28:32;24.00;;;12.90;;
69126;SDS011;56688;50.234;19.292;2022-10-16T00:31:02;23.90;;;13.40;;
69126;SDS011;56688;50.234;19.292;2022-10-16T00:33:30;27.60;;;14.40;;
69126;SDS011;56688;50.234;19.292;2022-10-16T00:35:58;25.70;;;14.50;;
69126;SDS011;56688;50.234;19.292;2022-10-16T00:38:25;26.20;;;15.20;;
69126;SDS011;56688;50.234;19.292;2022-10-16T00:40:52;34.10;;;16.70;;
69126;SDS011;56688;50.234;19.292;2022-10-16T00:46:08;48.70;;;22.40;;
69126;SDS011;56688;50.234;19.292;2022-10-16T00:48:38;39.80;;;19.60;;
69126;SDS011;56688;50.234;19.292;2022-10-16T00:51:05;37.60;;;18.20;;
69126;SDS011;56688;50.234;19.292;2022-10-16T00:53:34;48.80;;;22.40;;
69126;SDS011;56688;50.234;19.292;2022-10-16T00:56:01;44.20;;;21.40;;
69126;SDS011;56688;50.234;19.292;2022-10-16T00:58:29;40.50;;;21.40;;
69126;SDS011;56688;50.234;19.292;2022-10-16T01:00:56;37.10;;;18.90;;
69126;SDS011;56688;50.234;19.292;2022-10-16T01:03:31;36.60;;;19.20;;
69126;SDS011;56688;50.234;19.292;2022-10-16T01:06:06;31.40;;;17.80;;
69126;SDS011;56688;50.234;19.292;2022-10-16T01:08:58;33.20;;;17.00;;
69126;SDS011;56688;50.234;19.292;2022-10-16T01:11:32;31.40;;;18.30;;
69126;SDS011;56688;50.234;19.292;2022-10-16T01:14:00;29.10;;;17.70;;
69126;SDS011;56688;50.234;19.292;2022-10-16T01:16:44;35.70;;;19.00;;
69126;SDS011;56688;50.234;19.292;2022-10-16T01:19:23;30.30;;;19.00;;
69126;SDS011;56688;50.234;19.292;2022-10-16T01:22:07;31.50;;;18.90;;
69126;SDS011;56688;50.234;19.292;2022-10-16T01:24:38;33.60;;;20.10;;
69126;SDS011;56688;50.234;19.292;2022-10-16T01:37:37;31.00;;;18.60;;
69126;SDS011;56688;50.234;19.292;2022-10-16T01:40:10;36.10;;;20.60;;
69126;SDS011;56688;50.234;19.292;2022-10-16T01:42:40;46.00;;;24.20;;
69126;SDS011;56688;50.234;19.292;2022-10-16T01:45:11;33.50;;;19.90;;
69126;SDS011;56688;50.234;19.292;2022-10-16T01:47:41;33.50;;;19.20;;
69126;SDS011;56688;50.234;19.292;2022-10-16T01:50:10;31.70;;;18.70;;
69126;SDS011;56688;50.234;19.292;2022-10-16T01:52:41;30.50;;;18.20;;
69126;SDS011;56688;50.234;19.292;2022-10-16T01:55:12;36.10;;;19.20;;
69126;SDS011;56688;50.234;19.292;2022-10-16T01:57:44;26.70;;;15.70;;
69126;SDS011;56688;50.234;19.292;2022-10-16T02:00:15;29.80;;;18.10;;
69126;SDS011;56688;50.234;19.292;2022-10-16T02:02:46;47.00;;;23.30;;
69126;SDS011;56688;50.234;19.292;2022-10-16T02:05:24;60.00;;;29.00;;
69126;SDS011;56688;50.234;19.292;2022-10-16T02:07:55;50.60;;;26.20;;
69126;SDS011;56688;50.234;19.292;2022-10-16T02:10:25;35.80;;;21.20;;
69126;SDS011;56688;50.234;19.292;2022-10-16T02:13:01;25.90;;;16.20;;
69126;SDS011;56688;50.234;19.292;2022-10-16T02:17:59;26.40;;;15.30;;
69126;SDS011;56688;50.234;19.292;2022-10-16T02:20:27;26.30;;;15.40;;
69126;SDS011;56688;50.234;19.292;2022-10-16T02:22:59;23.10;;;15.10;;
69126;SDS011;56688;50.234;19.292;2022-10-16T02:25:31;25.10;;;16.20;;
69126;SDS011;56688;50.234;19.292;2022-10-16T02:28:06;28.80;;;17.10;;
69126;SDS011;56688;50.234;19.292;2022-10-16T02:30:40;34.70;;;18.40;;
69126;SDS011;56688;50.234;19.292;2022-10-16T02:33:11;38.30;;;20.40;;
69126;SDS011;56688;50.234;19.292;2022-10-16T02:35:40;62.20;;;28.70;;
69126;SDS011;56688;50.234;19.292;2022-10-16T02:38:10;41.70;;;21.20;;
69126;SDS011;56688;50.234;19.292;2022-10-16T02:40:41;31.20;;;17.20;;
69126;SDS011;56688;50.234;19.292;2022-10-16T02:43:09;37.40;;;21.10;;
69126;SDS011;56688;50.234;19.292;2022-10-16T02:45:36;32.30;;;17.90;;
69126;SDS011;56688;50.234;19.292;2022-10-16T02:48:04;30.10;;;16.40;;
69126;SDS011;56688;50.234;19.292;2022-10-16T02:50:31;26.60;;;16.50;;
69126;SDS011;56688;50.234;19.292;2022-10-16T02:52:58;28.30;;;15.30;;
69126;SDS011;56688;50.234;19.292;2022-10-16T02:55:25;29.40;;;14.70;;
69126;SDS011;56688;50.234;19.292;2022-10-16T02:57:52;25.60;;;14.60;;
69126;SDS011;56688;50.234;19.292;2022-10-16T03:00:19;29.50;;;16.70;;
69126;SDS011;56688;50.234;19.292;2022-10-16T03:02:46;27.70;;;15.70;;
69126;SDS011;56688;50.234;19.292;2022-10-16T03:05:13;26.30;;;15.90;;
69126;SDS011;56688;50.234;19.292;2022-10-16T03:07:41;30.20;;;15.80;;
69126;SDS011;56688;50.234;19.292;2022-10-16T03:10:08;24.00;;;15.20;;
69126;SDS011;56688;50.234;19.292;2022-10-16T03:12:35;25.90;;;15.30;;
69126;SDS011;56688;50.234;19.292;2022-10-16T03:15:02;23.50;;;14.30;;
69126;SDS011;56688;50.234;19.292;2022-10-16T03:17:31;20.30;;;11.90;;
69126;SDS011;56688;50.234;19.292;2022-10-16T03:19:58;22.70;;;14.60;;
69126;SDS011;56688;50.234;19.292;2022-10-16T03:22:25;21.60;;;13.50;;
69126;SDS011;56688;50.234;19.292;2022-10-16T03:24:52;16.30;;;10.00;;
69126;SDS011;56688;50.234;19.292;2022-10-16T03:27:19;28.20;;;15.00;;
69126;SDS011;56688;50.234;19.292;2022-10-16T03:29:45;25.50;;;14.00;;
69126;SDS011;56688;50.234;19.292;2022-10-16T03:32:12;25.40;;;15.00;;
69126;SDS011;56688;50.234;19.292;2022-10-16T03:34:39;24.70;;;14.80;;
69126;SDS011;56688;50.234;19.292;2022-10-16T03:37:06;22.60;;;14.30;;
69126;SDS011;56688;50.234;19.292;2022-10-16T03:39:33;24.90;;;14.80;;
69126;SDS011;56688;50.234;19.292;2022-10-16T03:42:00;17.90;;;11.80;;
69126;SDS011;56688;50.234;19.292;2022-10-16T03:44:26;25.10;;;16.20;;
69126;SDS011;56688;50.234;19.292;2022-10-16T03:46:53;60.60;;;28.60;;
69126;SDS011;56688;50.234;19.292;2022-10-16T03:49:20;36.50;;;18.40;;
69126;SDS011;56688;50.234;19.292;2022-10-16T03:51:47;22.80;;;14.40;;
69126;SDS011;56688;50.234;19.292;2022-10-16T03:54:13;22.20;;;13.90;;
69126;SDS011;56688;50.234;19.292;2022-10-16T03:56:40;24.20;;;14.90;;
69126;SDS011;56688;50.234;19.292;2022-10-16T03:59:07;17.40;;;10.80;;
69126;SDS011;56688;50.234;19.292;2022-10-16T04:01:34;24.60;;;14.10;;
69126;SDS011;56688;50.234;19.292;2022-10-16T04:04:01;21.00;;;14.10;;
69126;SDS011;56688;50.234;19.292;2022-10-16T04:06:28;24.80;;;13.60;;
69126;SDS011;56688;50.234;19.292;2022-10-16T04:08:54;22.40;;;13.80;;
69126;SDS011;56688;50.234;19.292;2022-10-16T04:11:21;25.70;;;14.10;;
69126;SDS011;56688;50.234;19.292;2022-10-16T04:13:48;22.40;;;13.90;;
69126;SDS011;56688;50.234;19.292;2022-10-16T04:16:15;22.30;;;14.30;;
69126;SDS011;56688;50.234;19.292;2022-10-16T04:18:42;22.90;;;14.30;;
69126;SDS011;56688;50.234;19.292;2022-10-16T04:21:09;23.60;;;16.30;;
69126;SDS011;56688;50.234;19.292;2022-10-16T04:23:35;24.60;;;16.40;;
69126;SDS011;56688;50.234;19.292;2022-10-16T04:26:02;27.30;;;15.20;;
69126;SDS011;56688;50.234;19.292;2022-10-16T04:28:29;24.10;;;13.80;;
69126;SDS011;56688;50.234;19.292;2022-10-16T04:30:57;22.00;;;12.10;;
69126;SDS011;56688;50.234;19.292;2022-10-16T04:33:23;28.10;;;17.10;;
69126;SDS011;56688;50.234;19.292;2022-10-16T04:35:58;30.20;;;16.90;;
69126;SDS011;56688;50.234;19.292;2022-10-16T04:38:25;28.20;;;17.20;;
69126;SDS011;56688;50.234;19.292;2022-10-16T04:40:53;26.80;;;15.30;;
69126;SDS011;56688;50.234;19.292;2022-10-16T04:43:20;25.60;;;14.90;;
69126;SDS011;56688;50.234;19.292;2022-10-16T04:45:47;26.80;;;15.40;;
69126;SDS011;56688;50.234;19.292;2022-10-16T04:48:14;31.10;;;17.80;;
69126;SDS011;56688;50.234;19.292;2022-10-16T04:50:40;26.80;;;17.20;;
69126;SDS011;56688;50.234;19.292;2022-10-16T04:53:07;29.50;;;17.90;;
69126;SDS011;56688;50.234;19.292;2022-10-16T04:55:34;37.90;;;21.90;;
69126;SDS011;56688;50.234;19.292;2022-10-16T04:58:01;34.50;;;22.00;;
69126;SDS011;56688;50.234;19.292;2022-10-16T05:00:28;31.90;;;19.20;;
69126;SDS011;56688;50.234;19.292;2022-10-16T05:02:55;26.40;;;16.10;;
69126;SDS011;56688;50.234;19.292;2022-10-16T05:05:21;20.90;;;14.10;;
69126;SDS011;56688;50.234;19.292;2022-10-16T05:07:49;26.10;;;17.10;;
69126;SDS011;56688;50.234;19.292;2022-10-16T05:10:16;24.90;;;15.40;;
69126;SDS011;56688;50.234;19.292;2022-10-16T05:12:43;33.50;;;17.40;;
69126;SDS011;56688;50.234;19.292;2022-10-16T05:15:10;29.00;;;17.50;;
69126;SDS011;56688;50.234;19.292;2022-10-16T05:17:37;30.00;;;17.10;;
69126;SDS011;56688;50.234;19.292;2022-10-16T05:20:10;22.40;;;13.60;;
69126;SDS011;56688;50.234;19.292;2022-10-16T05:22:37;19.00;;;12.10;;
69126;SDS011;56688;50.234;19.292;2022-10-16T05:25:04;27.20;;;16.40;;
69126;SDS011;56688;50.234;19.292;2022-10-16T05:27:31;29.90;;;16.10;;
69126;SDS011;56688;50.234;19.292;2022-10-16T05:29:58;24.20;;;13.80;;
69126;SDS011;56688;50.234;19.292;2022-10-16T05:32:25;29.30;;;17.50;;
69126;SDS011;56688;50.234;19.292;2022-10-16T05:34:52;28.70;;;18.00;;
69126;SDS011;56688;50.234;19.292;2022-10-16T05:37:18;25.20;;;16.30;;
69126;SDS011;56688;50.234;19.292;2022-10-16T05:39:45;29.30;;;15.80;;
69126;SDS011;56688;50.234;19.292;2022-10-16T05:42:12;25.20;;;16.00;;
69126;SDS011;56688;50.234;19.292;2022-10-16T05:44:39;27.40;;;17.30;;
69126;SDS011;56688;50.234;19.292;2022-10-16T05:47:05;25.80;;;15.90;;
69126;SDS011;56688;50.234;19.292;2022-10-16T05:49:32;25.40;;;16.30;;
69126;SDS011;56688;50.234;19.292;2022-10-16T05:52:06;28.90;;;18.20;;
69126;SDS011;56688;50.234;19.292;2022-10-16T05:54:32;28.30;;;17.40;;
69126;SDS011;56688;50.234;19.292;2022-10-16T05:56:59;27.70;;;16.30;;
69126;SDS011;56688;50.234;19.292;2022-10-16T05:59:26;20.10;;;11.80;;
69126;SDS011;56688;50.234;19.292;2022-10-16T06:01:53;21.20;;;13.00;;
69126;SDS011;56688;50.234;19.292;2022-10-16T06:04:19;22.60;;;12.70;;
69126;SDS011;56688;50.234;19.292;2022-10-16T06:06:46;29.00;;;18.60;;
69126;SDS011;56688;50.234;19.292;2022-10-16T06:09:13;31.90;;;18.60;;
69126;SDS011;56688;50.234;19.292;2022-10-16T06:11:40;36.20;;;20.20;;
69126;SDS011;56688;50.234;19.292;2022-10-16T06:14:07;35.00;;;18.20;;
69126;SDS011;56688;50.234;19.292;2022-10-16T06:16:36;36.80;;;22.50;;
69126;SDS011;56688;50.234;19.292;2022-10-16T06:19:04;62.40;;;29.90;;
69126;SDS011;56688;50.234;19.292;2022-10-16T06:21:33;65.60;;;31.60;;
69126;SDS011;56688;50.234;19.292;2022-10-16T06:24:00;104.20;;;46.90;;
69126;SDS011;56688;50.234;19.292;2022-10-16T06:26:28;128.70;;;56.40;;
69126;SDS011;56688;50.234;19.292;2022-10-16T06:28:57;126.90;;;57.00;;
69126;SDS011;56688;50.234;19.292;2022-10-16T06:31:26;118.80;;;53.40;;
69126;SDS011;56688;50.234;19.292;2022-10-16T06:33:57;116.60;;;53.30;;
69126;SDS011;56688;50.234;19.292;2022-10-16T06:36:24;115.50;;;52.00;;
69126;SDS011;56688;50.234;19.292;2022-10-16T06:38:52;92.80;;;44.30;;
69126;SDS011;56688;50.234;19.292;2022-10-16T06:41:20;90.20;;;43.40;;
69126;SDS011;56688;50.234;19.292;2022-10-16T06:43:48;91.60;;;40.00;;
69126;SDS011;56688;50.234;19.292;2022-10-16T06:46:16;89.20;;;41.10;;
69126;SDS011;56688;50.234;19.292;2022-10-16T06:48:45;80.60;;;39.60;;
69126;SDS011;56688;50.234;19.292;2022-10-16T06:51:13;75.20;;;37.80;;
69126;SDS011;56688;50.234;19.292;2022-10-16T06:53:44;74.90;;;37.00;;
69126;SDS011;56688;50.234;19.292;2022-10-16T06:56:28;77.40;;;37.60;;
69126;SDS011;56688;50.234;19.292;2022-10-16T06:58:57;64.60;;;34.40;;
69126;SDS011;56688;50.234;19.292;2022-10-16T07:01:25;71.70;;;35.70;;
69126;SDS011;56688;50.234;19.292;2022-10-16T07:03:53;64.70;;;29.40;;
69126;SDS011;56688;50.234;19.292;2022-10-16T07:06:21;61.20;;;31.10;;
69126;SDS011;56688;50.234;19.292;2022-10-16T07:08:49;55.50;;;29.60;;
69126;SDS011;56688;50.234;19.292;2022-10-16T07:11:16;51.60;;;28.40;;
69126;SDS011;56688;50.234;19.292;2022-10-16T07:13:46;49.50;;;25.00;;
69126;SDS011;56688;50.234;19.292;2022-10-16T07:16:21;29.80;;;15.90;;
69126;SDS011;56688;50.234;19.292;2022-10-16T07:18:51;49.00;;;24.70;;
69126;SDS011;56688;50.234;19.292;2022-10-16T07:21:25;26.60;;;15.50;;
69126;SDS011;56688;50.234;19.292;2022-10-16T07:23:57;18.60;;;11.90;;
69126;SDS011;56688;50.234;19.292;2022-10-16T07:26:25;19.40;;;13.20;;
69126;SDS011;56688;50.234;19.292;2022-10-16T07:28:54;23.00;;;13.80;;
69126;SDS011;56688;50.234;19.292;2022-10-16T07:31:21;20.50;;;13.10;;
69126;SDS011;56688;50.234;19.292;2022-10-16T07:33:49;15.20;;;10.30;;
69126;SDS011;56688;50.234;19.292;2022-10-16T07:36:17;18.80;;;12.40;;
69126;SDS011;56688;50.234;19.292;2022-10-16T07:38:46;17.20;;;10.90;;
69126;SDS011;56688;50.234;19.292;2022-10-16T07:41:15;14.50;;;9.50;;
69126;SDS011;56688;50.234;19.292;2022-10-16T07:43:47;15.70;;;9.70;;
69126;SDS011;56688;50.234;19.292;2022-10-16T07:46:15;16.40;;;9.50;;
69126;SDS011;56688;50.234;19.292;2022-10-16T07:48:43;11.60;;;8.20;;
69126;SDS011;56688;50.234;19.292;2022-10-16T07:51:14;8.20;;;6.90;;
69126;SDS011;56688;50.234;19.292;2022-10-16T07:53:43;10.70;;;7.50;;
69126;SDS011;56688;50.234;19.292;2022-10-16T07:56:10;8.80;;;7.10;;
69126;SDS011;56688;50.234;19.292;2022-10-16T07:58:38;10.00;;;7.00;;
69126;SDS011;56688;50.234;19.292;2022-10-16T08:01:06;10.20;;;7.20;;
69126;SDS011;56688;50.234;19.292;2022-10-16T08:03:34;10.60;;;7.20;;
69126;SDS011;56688;50.234;19.292;2022-10-16T08:06:02;9.80;;;7.00;;
69126;SDS011;56688;50.234;19.292;2022-10-16T08:08:30;9.80;;;6.80;;
69126;SDS011;56688;50.234;19.292;2022-10-16T08:10:57;7.60;;;6.10;;
69126;SDS011;56688;50.234;19.292;2022-10-16T08:13:24;10.30;;;6.80;;
69126;SDS011;56688;50.234;19.292;2022-10-16T08:15:53;11.20;;;6.80;;
69126;SDS011;56688;50.234;19.292;2022-10-16T08:18:21;9.50;;;6.80;;
69126;SDS011;56688;50.234;19.292;2022-10-16T08:20:48;12.30;;;6.60;;
69126;SDS011;56688;50.234;19.292;2022-10-16T08:23:23;10.70;;;7.60;;
69126;SDS011;56688;50.234;19.292;2022-10-16T08:25:53;8.60;;;6.90;;
69126;SDS011;56688;50.234;19.292;2022-10-16T08:28:20;9.00;;;6.80;;
69126;SDS011;56688;50.234;19.292;2022-10-16T08:30:47;12.30;;;7.20;;
69126;SDS011;56688;50.234;19.292;2022-10-16T08:33:14;15.50;;;7.40;;
69126;SDS011;56688;50.234;19.292;2022-10-16T08:35:41;12.20;;;7.50;;
69126;SDS011;56688;50.234;19.292;2022-10-16T08:38:08;14.80;;;7.70;;
69126;SDS011;56688;50.234;19.292;2022-10-16T08:40:35;13.70;;;7.80;;
69126;SDS011;56688;50.234;19.292;2022-10-16T08:48:17;10.20;;;7.40;;
69126;SDS011;56688;50.234;19.292;2022-10-16T08:50:50;9.50;;;6.80;;
69126;SDS011;56688;50.234;19.292;2022-10-16T08:56:19;10.00;;;7.70;;
69126;SDS011;56688;50.234;19.292;2022-10-16T08:58:46;9.00;;;6.40;;
69126;SDS011;56688;50.234;19.292;2022-10-16T09:01:16;14.00;;;7.30;;
69126;SDS011;56688;50.234;19.292;2022-10-16T09:06:31;10.50;;;7.30;;
69126;SDS011;56688;50.234;19.292;2022-10-16T09:12:15;12.30;;;7.20;;
69126;SDS011;56688;50.234;19.292;2022-10-16T09:23:00;9.70;;;6.80;;
69126;SDS011;56688;50.234;19.292;2022-10-16T09:25:39;11.10;;;7.10;;
69126;SDS011;56688;50.234;19.292;2022-10-16T09:28:10;10.40;;;6.80;;
69126;SDS011;56688;50.234;19.292;2022-10-16T09:30:37;10.40;;;7.40;;
69126;SDS011;56688;50.234;19.292;2022-10-16T09:33:06;10.70;;;7.20;;
69126;SDS011;56688;50.234;19.292;2022-10-16T09:38:06;9.10;;;6.40;;
69126;SDS011;56688;50.234;19.292;2022-10-16T09:43:03;11.50;;;6.80;;
69126;SDS011;56688;50.234;19.292;2022-10-16T09:45:40;9.30;;;6.80;;
69126;SDS011;56688;50.234;19.292;2022-10-16T09:48:11;11.20;;;7.00;;
69126;SDS011;56688;50.234;19.292;2022-10-16T09:50:39;11.10;;;7.00;;
69126;SDS011;56688;50.234;19.292;2022-10-16T09:53:10;7.40;;;6.00;;
69126;SDS011;56688;50.234;19.292;2022-10-16T09:58:22;9.80;;;7.20;;
69126;SDS011;56688;50.234;19.292;2022-10-16T10:00:51;11.20;;;7.30;;
69126;SDS011;56688;50.234;19.292;2022-10-16T10:03:30;10.50;;;7.10;;
69126;SDS011;56688;50.234;19.292;2022-10-16T10:06:06;12.20;;;7.90;;
69126;SDS011;56688;50.234;19.292;2022-10-16T10:14:17;9.60;;;7.40;;
69126;SDS011;56688;50.234;19.292;2022-10-16T10:16:47;11.90;;;7.90;;
69126;SDS011;56688;50.234;19.292;2022-10-16T10:19:16;11.00;;;7.10;;
69126;SDS011;56688;50.234;19.292;2022-10-16T10:21:45;10.70;;;7.60;;
69126;SDS011;56688;50.234;19.292;2022-10-16T10:24:13;9.10;;;7.60;;
69126;SDS011;56688;50.234;19.292;2022-10-16T10:26:45;12.40;;;7.50;;
69126;SDS011;56688;50.234;19.292;2022-10-16T10:29:17;9.70;;;7.40;;
69126;SDS011;56688;50.234;19.292;2022-10-16T10:42:50;13.10;;;7.40;;
69126;SDS011;56688;50.234;19.292;2022-10-16T10:45:26;9.80;;;6.50;;
69126;SDS011;56688;50.234;19.292;2022-10-16T10:48:00;7.50;;;5.60;;
69126;SDS011;56688;50.234;19.292;2022-10-16T10:50:37;11.40;;;5.80;;
69126;SDS011;56688;50.234;19.292;2022-10-16T11:01:22;8.80;;;4.80;;
69126;SDS011;56688;50.234;19.292;2022-10-16T11:06:58;10.90;;;5.60;;
69126;SDS011;56688;50.234;19.292;2022-10-16T11:09:31;7.10;;;5.10;;
69126;SDS011;56688;50.234;19.292;2022-10-16T11:14:50;9.10;;;5.50;;
69126;SDS011;56688;50.234;19.292;2022-10-16T11:20:11;10.00;;;5.60;;
69126;SDS011;56688;50.234;19.292;2022-10-16T11:22:42;8.50;;;5.50;;
69126;SDS011;56688;50.234;19.292;2022-10-16T11:25:18;6.30;;;4.80;;
69126;SDS011;56688;50.234;19.292;2022-10-16T11:27:48;8.40;;;5.40;;
69126;SDS011;56688;50.234;19.292;2022-10-16T11:30:22;7.40;;;5.50;;
69126;SDS011;56688;50.234;19.292;2022-10-16T11:32:54;7.50;;;5.30;;
69126;SDS011;56688;50.234;19.292;2022-10-16T11:35:24;8.10;;;5.70;;
69126;SDS011;56688;50.234;19.292;2022-10-16T11:38:00;8.00;;;4.60;;
69126;SDS011;56688;50.234;19.292;2022-10-16T11:40:31;6.50;;;4.90;;
69126;SDS011;56688;50.234;19.292;2022-10-16T11:43:03;6.50;;;5.30;;
69126;SDS011;56688;50.234;19.292;2022-10-16T11:45:41;6.00;;;5.00;;
69126;SDS011;56688;50.234;19.292;2022-10-16T11:50:51;9.10;;;5.60;;
69126;SDS011;56688;50.234;19.292;2022-10-16T11:55:55;12.30;;;5.70;;
69126;SDS011;56688;50.234;19.292;2022-10-16T11:58:25;6.70;;;5.30;;
69126;SDS011;56688;50.234;19.292;2022-10-16T12:03:49;7.70;;;5.40;;
69126;SDS011;56688;50.234;19.292;2022-10-16T12:09:20;6.50;;;5.40;;
69126;SDS011;56688;50.234;19.292;2022-10-16T12:11:51;8.40;;;5.70;;
69126;SDS011;56688;50.234;19.292;2022-10-16T12:14:19;7.50;;;5.20;;
69126;SDS011;56688;50.234;19.292;2022-10-16T12:19:17;7.70;;;5.70;;
69126;SDS011;56688;50.234;19.292;2022-10-16T12:21:45;8.80;;;5.20;;
69126;SDS011;56688;50.234;19.292;2022-10-16T12:27:05;6.90;;;5.40;;
69126;SDS011;56688;50.234;19.292;2022-10-16T12:29:46;7.30;;;4.70;;
69126;SDS011;56688;50.234;19.292;2022-10-16T12:38:05;8.20;;;5.10;;
69126;SDS011;56688;50.234;19.292;2022-10-16T12:40:34;6.10;;;4.90;;
69126;SDS011;56688;50.234;19.292;2022-10-16T12:43:11;8.50;;;5.10;;
69126;SDS011;56688;50.234;19.292;2022-10-16T12:46:03;6.40;;;5.20;;
69126;SDS011;56688;50.234;19.292;2022-10-16T12:48:32;9.40;;;5.70;;
69126;SDS011;56688;50.234;19.292;2022-10-16T12:51:21;8.70;;;5.20;;
69126;SDS011;56688;50.234;19.292;2022-10-16T13:04:35;7.60;;;5.20;;
69126;SDS011;56688;50.234;19.292;2022-10-16T13:10:25;6.40;;;4.90;;
69126;SDS011;56688;50.234;19.292;2022-10-16T13:15:57;5.50;;;4.90;;
69126;SDS011;56688;50.234;19.292;2022-10-16T13:21:11;7.60;;;5.40;;
69126;SDS011;56688;50.234;19.292;2022-10-16T13:26:36;10.40;;;5.10;;
69126;SDS011;56688;50.234;19.292;2022-10-16T13:29:13;6.80;;;5.80;;
69126;SDS011;56688;50.234;19.292;2022-10-16T13:31:41;7.90;;;5.90;;
69126;SDS011;56688;50.234;19.292;2022-10-16T13:34:11;7.10;;;5.70;;
69126;SDS011;56688;50.234;19.292;2022-10-16T13:36:43;11.20;;;6.00;;
69126;SDS011;56688;50.234;19.292;2022-10-16T13:41:44;6.70;;;5.60;;
69126;SDS011;56688;50.234;19.292;2022-10-16T13:44:13;8.80;;;5.70;;
69126;SDS011;56688;50.234;19.292;2022-10-16T13:46:42;10.10;;;5.40;;
69126;SDS011;56688;50.234;19.292;2022-10-16T13:49:14;6.50;;;5.50;;
69126;SDS011;56688;50.234;19.292;2022-10-16T13:51:53;10.00;;;5.70;;
69126;SDS011;56688;50.234;19.292;2022-10-16T13:54:23;6.60;;;5.70;;
69126;SDS011;56688;50.234;19.292;2022-10-16T13:56:51;9.10;;;5.50;;
69126;SDS011;56688;50.234;19.292;2022-10-16T13:59:35;7.20;;;5.50;;
69126;SDS011;56688;50.234;19.292;2022-10-16T14:04:47;9.00;;;5.50;;
69126;SDS011;56688;50.234;19.292;2022-10-16T14:07:19;11.90;;;6.40;;
69126;SDS011;56688;50.234;19.292;2022-10-16T14:09:51;11.50;;;6.20;;
69126;SDS011;56688;50.234;19.292;2022-10-16T14:12:21;7.40;;;5.70;;
69126;SDS011;56688;50.234;19.292;2022-10-16T14:14:54;10.90;;;6.00;;
69126;SDS011;56688;50.234;19.292;2022-10-16T14:17:23;9.20;;;6.60;;
69126;SDS011;56688;50.234;19.292;2022-10-16T14:19:56;7.90;;;5.90;;
69126;SDS011;56688;50.234;19.292;2022-10-16T14:24:59;9.10;;;5.90;;
69126;SDS011;56688;50.234;19.292;2022-10-16T14:30:07;8.50;;;6.20;;
69126;SDS011;56688;50.234;19.292;2022-10-16T14:32:42;7.90;;;5.60;;
69126;SDS011;56688;50.234;19.292;2022-10-16T14:35:23;8.60;;;6.20;;
69126;SDS011;56688;50.234;19.292;2022-10-16T14:37:53;9.60;;;5.70;;
69126;SDS011;56688;50.234;19.292;2022-10-16T14:40:23;7.00;;;5.50;;
69126;SDS011;56688;50.234;19.292;2022-10-16T14:42:53;10.20;;;6.40;;
69126;SDS011;56688;50.234;19.292;2022-10-16T14:45:21;8.80;;;5.70;;
69126;SDS011;56688;50.234;19.292;2022-10-16T14:47:54;9.70;;;6.50;;
69126;SDS011;56688;50.234;19.292;2022-10-16T14:50:23;10.20;;;6.30;;
69126;SDS011;56688;50.234;19.292;2022-10-16T14:52:50;8.80;;;6.40;;
69126;SDS011;56688;50.234;19.292;2022-10-16T14:55:17;10.10;;;6.50;;
69126;SDS011;56688;50.234;19.292;2022-10-16T14:57:45;7.30;;;6.10;;
69126;SDS011;56688;50.234;19.292;2022-10-16T15:00:16;11.10;;;7.00;;
69126;SDS011;56688;50.234;19.292;2022-10-16T15:02:46;11.30;;;7.90;;
69126;SDS011;56688;50.234;19.292;2022-10-16T15:05:21;9.20;;;6.70;;
69126;SDS011;56688;50.234;19.292;2022-10-16T15:07:54;9.10;;;6.50;;
69126;SDS011;56688;50.234;19.292;2022-10-16T15:10:22;8.60;;;6.80;;
69126;SDS011;56688;50.234;19.292;2022-10-16T15:12:50;10.70;;;7.50;;
69126;SDS011;56688;50.234;19.292;2022-10-16T15:17:48;11.00;;;7.90;;
69126;SDS011;56688;50.234;19.292;2022-10-16T15:20:19;12.30;;;8.10;;
69126;SDS011;56688;50.234;19.292;2022-10-16T15:22:46;12.70;;;8.00;;
69126;SDS011;56688;50.234;19.292;2022-10-16T15:25:47;13.30;;;8.00;;
69126;SDS011;56688;50.234;19.292;2022-10-16T15:28:05;13.50;;;8.10;;
69126;SDS011;56688;50.234;19.292;2022-10-16T15:30:33;9.70;;;6.20;;
69126;SDS011;56688;50.234;19.292;2022-10-16T15:33:01;11.10;;;7.60;;
69126;SDS011;56688;50.234;19.292;2022-10-16T15:35:29;11.80;;;7.60;;
69126;SDS011;56688;50.234;19.292;2022-10-16T15:37:56;9.20;;;7.30;;
69126;SDS011;56688;50.234;19.292;2022-10-16T15:40:24;11.90;;;8.00;;
69126;SDS011;56688;50.234;19.292;2022-10-16T15:42:51;10.10;;;7.60;;
69126;SDS011;56688;50.234;19.292;2022-10-16T15:45:19;12.90;;;7.50;;
69126;SDS011;56688;50.234;19.292;2022-10-16T15:47:46;122.40;;;87.80;;
69126;SDS011;56688;50.234;19.292;2022-10-16T15:50:14;25.80;;;20.60;;
69126;SDS011;56688;50.234;19.292;2022-10-16T15:52:42;12.70;;;9.60;;
69126;SDS011;56688;50.234;19.292;2022-10-16T15:55:09;13.70;;;9.90;;
69126;SDS011;56688;50.234;19.292;2022-10-16T15:57:39;13.60;;;9.20;;
69126;SDS011;56688;50.234;19.292;2022-10-16T16:00:09;12.50;;;8.90;;
69126;SDS011;56688;50.234;19.292;2022-10-16T16:02:39;12.00;;;8.30;;
69126;SDS011;56688;50.234;19.292;2022-10-16T16:05:09;29.30;;;23.30;;
69126;SDS011;56688;50.234;19.292;2022-10-16T16:07:37;21.70;;;16.60;;
69126;SDS011;56688;50.234;19.292;2022-10-16T16:10:06;136.00;;;69.50;;
69126;SDS011;56688;50.234;19.292;2022-10-16T16:12:34;86.10;;;45.20;;
69126;SDS011;56688;50.234;19.292;2022-10-16T16:15:02;68.70;;;37.30;;
69126;SDS011;56688;50.234;19.292;2022-10-16T16:17:31;63.10;;;35.40;;
69126;SDS011;56688;50.234;19.292;2022-10-16T16:19:59;64.60;;;35.00;;
69126;SDS011;56688;50.234;19.292;2022-10-16T16:22:26;17.20;;;11.20;;
69126;SDS011;56688;50.234;19.292;2022-10-16T16:24:54;22.30;;;14.20;;
69126;SDS011;56688;50.234;19.292;2022-10-16T16:27:21;67.70;;;35.80;;
69126;SDS011;56688;50.234;19.292;2022-10-16T16:29:47;153.10;;;85.10;;
69126;SDS011;56688;50.234;19.292;2022-10-16T16:32:14;91.40;;;46.50;;
69126;SDS011;56688;50.234;19.292;2022-10-16T16:34:41;115.80;;;66.40;;
69126;SDS011;56688;50.234;19.292;2022-10-16T16:37:08;76.10;;;43.50;;
69126;SDS011;56688;50.234;19.292;2022-10-16T16:39:35;19.50;;;11.50;;
69126;SDS011;56688;50.234;19.292;2022-10-16T16:42:02;33.50;;;20.80;;
69126;SDS011;56688;50.234;19.292;2022-10-16T16:44:30;32.50;;;19.60;;
69126;SDS011;56688;50.234;19.292;2022-10-16T16:46:57;17.40;;;10.20;;